createdAt,value
2022-10-11T00:01:58.201Z,2.30
2022-10-11T00:04:25.867Z,2.63
2022-10-11T00:06:53.456Z,2.85
2022-10-11T00:09:21.158Z,2.72
2022-10-11T00:11:49.041Z,3.00
2022-10-11T00:14:16.679Z,2.63
2022-10-11T00:16:45.676Z,2.40
2022-10-11T00:19:13.431Z,2.70
2022-10-11T00:21:41.162Z,2.30
2022-10-11T00:24:08.989Z,2.40
2022-10-11T00:26:36.588Z,3.10
2022-10-11T00:29:04.275Z,2.67
2022-10-11T00:31:35.538Z,2.72
2022-10-11T00:34:04.984Z,3.20
2022-10-11T00:36:32.665Z,2.72
2022-10-11T00:39:00.425Z,2.58
2022-10-11T00:41:28.020Z,2.42
2022-10-11T00:44:16.909Z,2.97
2022-10-11T00:46:46.999Z,3.03
2022-10-11T00:49:21.625Z,2.55
2022-10-11T00:51:53.383Z,2.58
2022-10-11T00:54:25.269Z,2.72
2022-10-11T00:56:57.264Z,2.90
2022-10-11T00:59:27.396Z,2.50
2022-10-11T01:01:56.409Z,2.90
2022-10-11T01:04:25.468Z,3.00
2022-10-11T01:06:54.506Z,3.30
2022-10-11T01:09:23.507Z,3.30
2022-10-11T01:11:53.146Z,3.58
2022-10-11T01:14:40.083Z,3.00
2022-10-11T01:17:18.653Z,4.10
2022-10-11T01:20:06.692Z,3.40
2022-10-11T01:23:00.043Z,3.55
2022-10-11T01:25:34.251Z,3.00
2022-10-11T01:28:17.040Z,3.65
2022-10-11T01:30:46.243Z,3.10
2022-10-11T01:33:21.578Z,3.63
2022-10-11T01:35:58.207Z,3.70
2022-10-11T01:38:31.599Z,4.03
2022-10-11T01:41:03.319Z,3.50
2022-10-11T01:43:32.136Z,3.60
2022-10-11T01:46:04.945Z,3.95
2022-10-11T01:48:32.841Z,3.80
2022-10-11T01:51:04.173Z,3.60
2022-10-11T01:53:58.013Z,4.40
2022-10-11T01:56:53.103Z,3.28
2022-10-11T01:59:33.036Z,4.40
2022-10-11T02:02:11.492Z,3.55
2022-10-11T02:04:44.628Z,3.50
2022-10-11T02:07:20.560Z,5.13
2022-10-11T02:09:53.428Z,4.05
2022-10-11T02:12:26.646Z,4.63
2022-10-11T02:14:56.179Z,4.82
2022-10-11T02:17:31.526Z,4.38
2022-10-11T02:20:01.791Z,3.67
2022-10-11T02:22:33.010Z,4.53
2022-10-11T02:25:06.041Z,4.28
2022-10-11T02:27:36.767Z,4.57
2022-10-11T02:30:08.281Z,4.60
2022-10-11T02:32:41.219Z,4.93
2022-10-11T02:35:10.496Z,4.30
2022-10-11T02:37:44.294Z,5.28
2022-10-11T02:40:16.895Z,4.70
2022-10-11T02:42:47.883Z,4.35
2022-10-11T02:45:19.340Z,4.93
2022-10-11T02:47:52.136Z,5.03
2022-10-11T02:50:19.873Z,5.22
2022-10-11T02:52:47.462Z,5.72
2022-10-11T02:55:15.079Z,5.10
2022-10-11T02:57:42.719Z,5.28
2022-10-11T03:00:11.653Z,6.10
2022-10-11T03:02:39.360Z,5.13
2022-10-11T03:05:09.150Z,5.95
2022-10-11T03:07:36.735Z,5.72
2022-10-11T03:10:04.594Z,5.75
2022-10-11T03:12:32.205Z,5.57
2022-10-11T03:14:59.925Z,5.20
2022-10-11T03:17:36.863Z,5.47
2022-10-11T03:20:05.910Z,6.25
2022-10-11T03:22:34.903Z,5.53
2022-10-11T03:25:04.435Z,5.97
2022-10-11T03:27:32.927Z,6.82
2022-10-11T03:30:00.643Z,6.68
2022-10-11T03:32:28.442Z,7.30
2022-10-11T03:34:56.151Z,7.07
2022-10-11T03:37:24.004Z,7.40
2022-10-11T03:39:52.985Z,8.05
2022-10-11T03:42:20.824Z,7.57
2022-10-11T03:44:49.507Z,8.45
2022-10-11T03:47:17.122Z,8.35
2022-10-11T03:49:44.773Z,7.82
2022-10-11T03:52:12.584Z,7.93
2022-10-11T03:54:40.217Z,8.45
2022-10-11T03:57:09.220Z,8.18
2022-10-11T03:59:36.819Z,8.27
2022-10-11T04:02:04.648Z,9.35
2022-10-11T04:04:32.410Z,8.88
2022-10-11T04:07:00.025Z,8.38
2022-10-11T04:09:27.643Z,9.50
2022-10-11T04:11:55.244Z,8.75
2022-10-11T04:14:24.282Z,9.52
2022-10-11T04:16:51.851Z,9.20
2022-10-11T04:19:19.439Z,9.13
2022-10-11T04:21:47.025Z,7.88
2022-10-11T04:24:14.641Z,9.18
2022-10-11T04:26:42.249Z,9.68
2022-10-11T04:29:09.964Z,9.48
2022-10-11T04:31:38.901Z,10.45
2022-10-11T04:34:06.507Z,9.20
2022-10-11T04:36:34.125Z,9.77
2022-10-11T04:39:01.800Z,10.13
2022-10-11T04:41:29.553Z,9.98
2022-10-11T04:44:06.636Z,10.10
2022-10-11T04:46:34.245Z,9.10
2022-10-11T04:49:03.529Z,10.90
2022-10-11T04:51:31.588Z,10.43
2022-10-11T04:53:59.136Z,10.18
2022-10-11T04:56:26.775Z,10.52
2022-10-11T04:58:54.733Z,10.80
2022-10-11T05:01:22.572Z,10.82
2022-10-11T05:03:50.823Z,11.75
2022-10-11T05:06:19.872Z,12.93
2022-10-11T05:08:47.613Z,10.82
2022-10-11T05:11:16.933Z,12.43
2022-10-11T05:13:45.843Z,13.48
2022-10-11T05:16:15.071Z,14.02
2022-10-11T05:18:43.157Z,13.80
2022-10-11T05:21:17.358Z,14.15
2022-10-11T05:23:47.866Z,15.27
2022-10-11T05:26:15.589Z,13.85
2022-10-11T05:28:43.486Z,14.85
2022-10-11T05:31:11.553Z,14.25
2022-10-11T05:33:39.297Z,13.52
2022-10-11T05:36:08.080Z,14.50
2022-10-11T05:38:41.996Z,14.25
2022-10-11T05:41:32.389Z,14.05
2022-10-11T05:44:00.344Z,14.73
2022-10-11T05:46:27.972Z,16.40
2022-10-11T05:48:55.669Z,16.85
2022-10-11T05:51:23.398Z,16.23
2022-10-11T05:53:51.121Z,19.23
2022-10-11T05:56:22.372Z,17.63
2022-10-11T05:58:51.294Z,18.42
2022-10-11T06:01:20.813Z,18.20
2022-10-11T06:03:48.732Z,18.55
2022-10-11T06:06:16.515Z,18.25
2022-10-11T06:08:44.402Z,19.05
2022-10-11T06:11:14.312Z,16.95
2022-10-11T06:13:44.320Z,19.38
2022-10-11T06:16:13.398Z,17.95
2022-10-11T06:18:41.476Z,17.65
2022-10-11T06:21:09.129Z,17.13
2022-10-11T06:23:39.844Z,17.20
2022-10-11T06:26:09.911Z,17.38
2022-10-11T06:28:38.288Z,15.82
2022-10-11T06:31:12.766Z,15.93
2022-10-11T06:33:40.772Z,14.60
2022-10-11T06:36:11.971Z,14.18
2022-10-11T06:38:45.209Z,14.60
2022-10-11T06:41:15.171Z,14.80
2022-10-11T06:43:42.918Z,13.77
2022-10-11T06:46:14.540Z,13.45
2022-10-11T06:48:45.419Z,12.95
2022-10-11T06:51:14.394Z,13.15
2022-10-11T06:53:42.199Z,13.70
2022-10-11T06:56:17.477Z,12.05
2022-10-11T06:58:50.298Z,10.70
2022-10-11T07:01:23.963Z,11.55
2022-10-11T07:03:58.626Z,11.45
2022-10-11T07:06:32.462Z,10.27
2022-10-11T07:09:02.555Z,9.73
2022-10-11T07:11:31.699Z,9.88
2022-10-11T07:14:01.316Z,8.88
2022-10-11T07:16:30.369Z,9.18
2022-10-11T07:19:01.313Z,9.45
2022-10-11T07:21:30.458Z,8.60
2022-10-11T07:23:58.256Z,8.88
2022-10-11T07:26:26.225Z,7.18
2022-10-11T07:28:54.002Z,6.85
2022-10-11T07:31:23.818Z,5.30
2022-10-11T07:33:53.277Z,4.50
2022-10-11T07:36:23.481Z,4.32
2022-10-11T07:38:56.219Z,2.97
2022-10-11T07:41:23.841Z,2.72
2022-10-11T07:43:51.466Z,2.45
2022-10-11T07:46:19.519Z,3.20
2022-10-11T07:48:47.193Z,2.75
2022-10-11T07:51:18.673Z,3.08
2022-10-11T07:53:48.478Z,2.88
2022-10-11T07:56:17.898Z,2.40
2022-10-11T07:58:46.005Z,2.55
2022-10-11T08:01:14.723Z,2.83
2022-10-11T08:03:42.521Z,3.50
2022-10-11T08:06:12.665Z,2.40
2022-10-11T08:08:41.956Z,2.67
2022-10-11T08:11:09.809Z,2.80
2022-10-11T08:13:37.678Z,2.00
2022-10-11T08:16:13.390Z,2.60
2022-10-11T08:18:41.217Z,2.30
2022-10-11T08:21:09.343Z,2.38
2022-10-11T08:23:38.677Z,2.38
2022-10-11T08:26:08.690Z,2.30
2022-10-11T08:28:38.428Z,2.55
2022-10-11T08:31:08.220Z,2.00
2022-10-11T08:33:35.872Z,2.38
2022-10-11T08:36:05.980Z,2.60
2022-10-11T08:38:34.348Z,2.58
2022-10-11T08:41:02.643Z,2.45
2022-10-11T08:43:39.445Z,3.42
2022-10-11T08:46:09.693Z,5.40
2022-10-11T08:48:39.169Z,8.82
2022-10-11T08:51:14.605Z,6.93
2022-10-11T08:53:47.425Z,10.63
2022-10-11T08:56:18.526Z,10.30
2022-10-11T08:58:52.794Z,7.97
2022-10-11T09:01:23.899Z,6.10
2022-10-11T09:03:52.644Z,2.88
2022-10-11T09:06:33.546Z,3.30
2022-10-11T09:09:20.505Z,3.00
2022-10-11T09:12:01.820Z,2.60
2022-10-11T09:14:55.506Z,2.40
2022-10-11T09:17:37.966Z,3.50
2022-10-11T09:20:45.319Z,2.47
2022-10-11T09:23:23.330Z,2.30
2022-10-11T09:25:59.268Z,2.70
2022-10-11T09:28:38.896Z,2.95
2022-10-11T09:31:11.087Z,2.63
2022-10-11T09:33:45.177Z,2.70
2022-10-11T09:36:19.453Z,2.85
2022-10-11T09:38:51.838Z,3.28
2022-10-11T09:41:25.909Z,3.85
2022-10-11T09:43:53.882Z,2.92
2022-10-11T09:46:25.793Z,2.60
2022-10-11T09:48:57.304Z,2.80
2022-10-11T09:51:28.194Z,2.83
2022-10-11T09:53:58.406Z,2.03
2022-10-11T09:56:28.573Z,2.60
2022-10-11T09:59:22.545Z,2.70
2022-10-11T10:02:17.410Z,2.60
2022-10-11T10:04:57.330Z,2.63
2022-10-11T10:07:27.473Z,3.20
2022-10-11T10:09:55.310Z,2.67
2022-10-11T10:12:25.039Z,2.60
2022-10-11T10:15:03.153Z,3.08
2022-10-11T10:17:33.150Z,2.67
2022-10-11T10:20:01.372Z,2.72
2022-10-11T10:22:31.142Z,3.28
2022-10-11T10:25:01.041Z,2.80
2022-10-11T10:27:30.630Z,2.92
2022-10-11T10:30:52.256Z,2.85
2022-10-11T10:37:19.364Z,2.88
2022-10-11T10:39:51.202Z,3.50
2022-10-11T10:42:20.849Z,3.75
2022-10-11T10:44:53.523Z,3.28
2022-10-11T10:47:32.826Z,3.58
2022-10-11T10:50:08.284Z,3.53
2022-10-11T10:53:03.447Z,3.53
2022-10-11T10:55:38.656Z,3.92
2022-10-11T10:58:18.885Z,3.53
2022-10-11T11:00:49.398Z,4.53
2022-10-11T11:03:23.249Z,4.30
2022-10-11T11:05:58.667Z,3.83
2022-10-11T11:08:41.018Z,4.30
2022-10-11T11:11:20.193Z,3.72
2022-10-11T11:13:54.489Z,4.57
2022-10-11T11:16:33.766Z,4.13
2022-10-11T11:19:20.653Z,4.70
2022-10-11T11:21:55.868Z,4.35
2022-10-11T11:24:38.286Z,4.78
2022-10-11T11:27:10.883Z,4.80
2022-10-11T11:29:51.851Z,4.38
2022-10-11T11:32:31.485Z,4.68
2022-10-11T11:35:03.209Z,4.55
2022-10-11T11:37:35.447Z,5.13
2022-10-11T11:40:08.986Z,4.85
2022-10-11T11:42:42.704Z,5.53
2022-10-11T11:45:19.437Z,5.25
2022-10-11T11:47:53.885Z,5.40
2022-10-11T11:50:23.890Z,5.53
2022-10-11T11:52:54.114Z,5.20
2022-10-11T11:55:30.766Z,5.25
2022-10-11T11:58:07.265Z,5.72
2022-10-11T12:00:46.914Z,5.35
2022-10-11T12:03:18.689Z,5.00
2022-10-11T12:06:19.745Z,5.13
2022-10-11T12:08:49.140Z,5.32
2022-10-11T12:11:25.087Z,6.00
2022-10-11T12:13:54.900Z,5.65
2022-10-11T12:16:23.947Z,6.22
2022-10-11T12:18:54.983Z,5.30
2022-10-11T12:21:28.201Z,5.07
2022-10-11T12:23:56.960Z,5.57
2022-10-11T12:26:44.596Z,5.50
2022-10-11T12:29:43.766Z,5.88
2022-10-11T12:32:53.434Z,5.20
2022-10-11T12:35:42.433Z,5.15
2022-10-11T12:38:20.975Z,5.22
2022-10-11T12:40:50.433Z,6.20
2022-10-11T12:44:08.953Z,5.53
2022-10-11T12:46:43.289Z,5.47
2022-10-11T12:49:31.197Z,5.78
2022-10-11T12:52:01.899Z,6.60
2022-10-11T12:55:02.335Z,5.80
2022-10-11T12:57:51.409Z,5.28
2022-10-11T13:00:27.896Z,5.53
2022-10-11T13:02:56.620Z,5.32
2022-10-11T13:05:26.944Z,5.40
2022-10-11T13:07:57.204Z,5.68
2022-10-11T13:10:29.111Z,5.78
2022-10-11T13:12:59.609Z,4.97
2022-10-11T13:15:30.772Z,5.95
2022-10-11T13:18:00.301Z,5.85
2022-10-11T13:20:30.514Z,5.38
2022-10-11T13:22:58.634Z,5.00
2022-10-11T13:25:28.725Z,5.03
2022-10-11T13:27:58.417Z,5.38
2022-10-11T13:30:30.481Z,4.90
2022-10-11T13:32:59.927Z,5.25
2022-10-11T13:35:32.562Z,5.53
2022-10-11T13:38:00.612Z,5.40
2022-10-11T13:40:28.960Z,5.68
2022-10-11T13:42:57.662Z,5.35
2022-10-11T13:45:30.531Z,5.68
2022-10-11T13:47:58.402Z,5.38
2022-10-11T13:50:32.202Z,4.68
2022-10-11T13:53:02.262Z,5.47
2022-10-11T13:55:33.560Z,6.13
2022-10-11T13:58:03.323Z,5.32
2022-10-11T14:00:37.571Z,5.82
2022-10-11T14:03:08.662Z,5.60
2022-10-11T14:05:39.889Z,5.47
2022-10-11T14:08:19.739Z,6.07
2022-10-11T14:10:51.682Z,6.65
2022-10-11T14:13:29.959Z,6.40
2022-10-11T14:16:05.564Z,5.88
2022-10-11T14:18:38.465Z,6.07
2022-10-11T14:21:29.712Z,5.80
2022-10-11T14:23:59.482Z,6.82
2022-10-11T14:26:31.871Z,5.22
2022-10-11T14:31:29.407Z,6.25
2022-10-11T14:33:57.565Z,5.65
2022-10-11T14:36:26.015Z,5.95
2022-10-11T14:38:54.085Z,6.25
2022-10-11T14:41:21.716Z,6.03
2022-10-11T14:43:49.472Z,6.05
2022-10-11T14:46:23.348Z,7.28
2022-10-11T14:48:55.987Z,6.05
2022-10-11T14:51:27.746Z,5.55
2022-10-11T14:53:55.383Z,6.13
2022-10-11T14:56:23.141Z,6.53
2022-10-11T14:58:51.167Z,6.72
2022-10-11T15:01:18.917Z,7.53
2022-10-11T15:03:46.548Z,6.20
2022-10-11T15:06:20.027Z,6.65
2022-10-11T15:08:47.767Z,5.90
2022-10-11T15:11:17.479Z,6.38
2022-10-11T15:13:45.345Z,5.75
2022-10-11T15:16:14.865Z,5.97
2022-10-11T15:18:43.885Z,5.25
2022-10-11T15:21:14.636Z,6.32
2022-10-11T15:23:43.639Z,5.75
2022-10-11T15:26:14.759Z,5.88
2022-10-11T15:28:43.275Z,5.50
2022-10-11T15:31:11.109Z,6.28
2022-10-11T15:33:39.077Z,5.63
2022-10-11T15:36:09.966Z,5.45
2022-10-11T15:38:38.012Z,5.45
2022-10-11T15:41:08.403Z,5.43
2022-10-11T15:43:36.073Z,5.15
2022-10-11T15:46:04.539Z,5.72
2022-10-11T15:48:33.073Z,5.10
2022-10-11T15:51:00.975Z,5.30
2022-10-11T15:53:31.090Z,5.10
2022-10-11T15:56:02.130Z,5.15
2022-10-11T15:58:32.966Z,5.57
2022-10-11T16:01:05.440Z,5.10
2022-10-11T16:03:34.466Z,4.80
2022-10-11T16:06:05.563Z,4.90
2022-10-11T16:08:34.755Z,5.10
2022-10-11T16:11:02.480Z,4.65
2022-10-11T16:13:31.480Z,5.63
2022-10-11T16:16:01.012Z,5.38
2022-10-11T16:18:34.137Z,4.57
2022-10-11T16:21:07.591Z,4.97
2022-10-11T16:23:35.850Z,4.82
2022-10-11T16:26:05.863Z,5.13
2022-10-11T16:28:35.632Z,5.35
2022-10-11T16:31:07.750Z,6.28
2022-10-11T16:33:35.383Z,5.50
2022-10-11T16:36:20.613Z,5.78
2022-10-11T16:38:48.199Z,5.30
2022-10-11T16:41:15.952Z,5.57
2022-10-11T16:43:44.921Z,5.20
2022-10-11T16:46:12.763Z,5.13
2022-10-11T16:48:40.423Z,5.25
2022-10-11T16:51:08.788Z,5.50
2022-10-11T16:53:36.764Z,6.97
2022-10-11T16:56:07.149Z,7.32
2022-10-11T16:58:35.896Z,8.45
2022-10-11T17:01:09.356Z,8.07
2022-10-11T17:03:37.030Z,9.27
2022-10-11T17:06:05.621Z,7.40
2022-10-11T17:08:33.426Z,10.27
2022-10-11T17:11:00.984Z,11.73
2022-10-11T17:13:28.649Z,12.25
2022-10-11T17:15:56.294Z,12.30
2022-10-11T17:18:25.306Z,6.68
2022-10-11T17:21:01.966Z,9.55
2022-10-11T17:23:29.880Z,7.00
2022-10-11T17:25:57.593Z,5.10
2022-10-11T17:28:26.242Z,4.68
2022-10-11T17:30:55.308Z,4.00
2022-10-11T17:33:23.040Z,4.07
2022-10-11T17:35:52.011Z,5.25
2022-10-11T17:38:20.740Z,3.97
2022-10-11T17:40:48.824Z,3.17
2022-10-11T17:43:16.763Z,3.25
2022-10-11T17:45:44.383Z,3.00
2022-10-11T17:48:11.980Z,2.20
2022-10-11T17:50:41.974Z,2.20
2022-10-11T17:53:10.934Z,2.05
2022-10-11T17:55:42.239Z,1.88
2022-10-11T17:58:10.514Z,1.85
2022-10-11T18:00:38.548Z,1.70
2022-10-11T18:03:06.596Z,1.92
2022-10-11T18:05:34.329Z,3.10
2022-10-11T18:08:02.055Z,1.58
2022-10-11T18:10:33.421Z,1.77
2022-10-11T18:13:05.725Z,2.13
2022-10-11T18:15:34.417Z,2.13
2022-10-11T18:18:04.572Z,1.88
2022-10-11T18:20:32.300Z,1.63
2022-10-11T18:22:59.924Z,2.05
2022-10-11T18:25:27.605Z,2.30
2022-10-11T18:27:56.593Z,2.03
2022-10-11T18:30:24.194Z,2.05
2022-10-11T18:32:51.851Z,2.45
2022-10-11T18:35:19.443Z,2.33
2022-10-11T18:37:47.190Z,2.17
2022-10-11T18:40:14.776Z,1.90
2022-10-11T18:42:42.373Z,1.80
2022-10-11T18:45:12.051Z,2.13
2022-10-11T18:47:39.650Z,1.77
2022-10-11T18:50:08.394Z,1.70
2022-10-11T18:52:37.617Z,1.58
2022-10-11T18:55:07.695Z,1.98
2022-10-11T18:57:35.520Z,1.83
2022-10-11T19:00:11.763Z,1.90
2022-10-11T19:02:52.170Z,2.15
2022-10-11T19:05:19.777Z,2.10
2022-10-11T19:07:47.378Z,2.30
2022-10-11T19:10:15.035Z,2.45
2022-10-11T19:12:42.664Z,2.13
2022-10-11T19:15:11.416Z,2.97
2022-10-11T19:17:39.045Z,3.00
2022-10-11T19:20:08.984Z,3.53
2022-10-11T19:22:36.583Z,2.33
2022-10-11T19:25:04.341Z,2.42
2022-10-11T19:27:31.939Z,2.42
2022-10-11T19:30:00.401Z,2.35
2022-10-11T19:32:28.525Z,3.60
2022-10-11T19:34:56.112Z,3.03
2022-10-11T19:37:26.491Z,3.40
2022-10-11T19:39:54.219Z,3.05
2022-10-11T19:42:22.095Z,2.92
2022-10-11T19:44:49.697Z,2.70
2022-10-11T19:47:17.289Z,4.07
2022-10-11T19:49:44.901Z,3.78
2022-10-11T19:52:13.265Z,3.10
2022-10-11T19:54:42.375Z,2.88
2022-10-11T19:57:10.143Z,2.72
2022-10-11T19:59:37.779Z,2.50
2022-10-11T20:02:05.396Z,2.72
2022-10-11T20:04:51.604Z,2.78
2022-10-11T20:07:19.862Z,2.90
2022-10-11T20:09:48.872Z,2.38
2022-10-11T20:12:16.459Z,3.08
2022-10-11T20:14:44.077Z,3.67
2022-10-11T20:17:11.700Z,2.47
2022-10-11T20:19:39.316Z,2.85
2022-10-11T20:22:06.954Z,2.80
2022-10-11T20:24:34.764Z,3.33
2022-10-11T20:27:05.471Z,2.88
2022-10-11T20:29:33.346Z,3.25
2022-10-11T20:32:00.945Z,3.20
2022-10-11T20:34:28.878Z,2.75
2022-10-11T20:36:56.503Z,3.33
2022-10-11T20:39:24.634Z,3.72
2022-10-11T20:41:52.280Z,2.67
2022-10-11T20:44:21.216Z,2.80
2022-10-11T20:46:48.804Z,2.80
2022-10-11T20:49:16.443Z,3.35
2022-10-11T20:51:44.035Z,3.45
2022-10-11T20:54:12.196Z,3.55
2022-10-11T20:56:40.095Z,4.70
2022-10-11T20:59:08.295Z,4.40
2022-10-11T21:01:39.653Z,4.68
2022-10-11T21:04:09.025Z,5.05
2022-10-11T21:06:36.623Z,4.07
2022-10-11T21:09:04.360Z,3.63
2022-10-11T21:11:35.005Z,3.10
2022-10-11T21:14:05.262Z,2.70
2022-10-11T21:16:33.457Z,2.90
2022-10-11T21:19:03.938Z,3.70
2022-10-11T21:21:31.848Z,4.43
2022-10-11T21:24:00.745Z,6.13
2022-10-11T21:26:29.485Z,5.63
2022-10-11T21:28:59.024Z,4.10
2022-10-11T21:31:29.727Z,3.15
2022-10-11T21:34:02.018Z,2.72
2022-10-11T21:36:29.667Z,3.50
2022-10-11T21:38:57.599Z,2.75
2022-10-11T21:41:26.892Z,3.22
2022-10-11T21:43:54.588Z,2.92
2022-10-11T21:46:32.522Z,2.97
2022-10-11T21:49:05.868Z,3.10
2022-10-11T21:51:34.489Z,3.85
2022-10-11T21:54:02.122Z,3.30
2022-10-11T21:56:31.373Z,4.00
2022-10-11T21:58:59.375Z,3.58
2022-10-11T22:01:29.304Z,3.47
2022-10-11T22:03:57.009Z,3.90
2022-10-11T22:06:26.145Z,3.40
2022-10-11T22:08:53.793Z,3.90
2022-10-11T22:11:21.375Z,3.22
2022-10-11T22:13:49.469Z,4.00
2022-10-11T22:16:17.059Z,3.80
2022-10-11T22:18:44.713Z,4.07
2022-10-11T22:21:14.693Z,3.63
2022-10-11T22:23:45.680Z,3.72
2022-10-11T22:26:15.457Z,3.60
2022-10-11T22:28:43.954Z,3.42
2022-10-11T22:31:11.943Z,3.70
2022-10-11T22:33:40.117Z,4.03
2022-10-11T22:36:10.086Z,3.92
2022-10-11T22:38:38.984Z,3.70
2022-10-11T22:41:08.477Z,4.82
2022-10-11T22:43:36.567Z,4.03
2022-10-11T22:46:49.811Z,4.03
2022-10-11T22:49:17.580Z,4.03
2022-10-11T22:51:45.440Z,4.85
2022-10-11T22:54:13.253Z,4.45
2022-10-11T22:56:42.271Z,3.80
2022-10-11T22:59:09.969Z,4.53
2022-10-11T23:01:37.575Z,4.20
2022-10-11T23:04:05.628Z,4.68
2022-10-11T23:06:33.392Z,4.53
2022-10-11T23:09:00.983Z,4.60
2022-10-11T23:11:28.633Z,4.63
2022-10-11T23:13:57.591Z,4.90
2022-10-11T23:16:25.200Z,5.43
2022-10-11T23:18:53.626Z,5.00
2022-10-11T23:21:21.353Z,5.28
2022-10-11T23:23:49.241Z,5.78
2022-10-11T23:26:17.737Z,5.78
2022-10-11T23:28:45.423Z,6.13
2022-10-11T23:31:16.412Z,5.18
2022-10-11T23:33:44.464Z,6.00
2022-10-11T23:36:16.176Z,5.55
2022-10-11T23:38:44.047Z,7.40
2022-10-11T23:41:11.965Z,6.15
2022-10-11T23:43:39.583Z,6.47
2022-10-11T23:46:07.204Z,6.22
2022-10-11T23:48:36.154Z,6.82
2022-10-11T23:51:03.765Z,6.22
2022-10-11T23:53:31.394Z,5.55
2022-10-11T23:55:58.973Z,5.80
2022-10-11T23:58:26.647Z,6.40
